createdAt,value
2023-02-15T00:00:07.096Z,88.92
2023-02-15T00:02:34.272Z,87.85
2023-02-15T00:05:01.484Z,87.80
2023-02-15T00:07:28.548Z,87.19
2023-02-15T00:09:55.647Z,87.92
2023-02-15T00:12:22.801Z,88.54
2023-02-15T00:14:49.879Z,88.79
2023-02-15T00:17:17.277Z,88.36
2023-02-15T00:19:44.321Z,88.84
2023-02-15T00:22:11.386Z,88.44
2023-02-15T00:24:38.443Z,88.76
2023-02-15T00:27:05.528Z,88.69
2023-02-15T00:29:32.776Z,88.95
2023-02-15T00:31:59.845Z,89.04
2023-02-15T00:34:29.894Z,89.03
2023-02-15T00:36:56.971Z,88.91
2023-02-15T00:39:24.970Z,89.24
2023-02-15T00:41:51.990Z,89.46
2023-02-15T00:44:19.166Z,89.17
2023-02-15T00:46:46.334Z,89.15
2023-02-15T00:49:13.405Z,88.91
2023-02-15T00:51:40.656Z,88.40
2023-02-15T00:54:08.168Z,87.51
2023-02-15T00:56:35.380Z,86.65
2023-02-15T00:59:02.687Z,87.18
2023-02-15T01:01:29.840Z,88.46
2023-02-15T01:03:57.148Z,88.21
2023-02-15T01:06:24.216Z,87.64
2023-02-15T01:08:51.281Z,88.58
2023-02-15T01:11:25.413Z,88.72
2023-02-15T01:13:56.253Z,88.79
2023-02-15T01:16:26.577Z,88.51
2023-02-15T01:18:56.184Z,88.29
2023-02-15T01:21:26.256Z,87.97
2023-02-15T01:23:53.554Z,87.53
2023-02-15T01:26:20.634Z,87.86
2023-02-15T01:28:47.752Z,88.52
2023-02-15T01:31:22.065Z,88.78
2023-02-15T01:33:50.028Z,88.30
2023-02-15T01:36:18.453Z,87.74
2023-02-15T01:38:46.204Z,88.24
2023-02-15T01:41:25.646Z,87.49
2023-02-15T01:44:04.318Z,87.75
2023-02-15T01:46:50.695Z,87.14
2023-02-15T01:49:25.212Z,87.35
2023-02-15T01:51:53.928Z,87.74
2023-02-15T01:54:30.587Z,87.86
2023-02-15T01:57:04.621Z,88.42
2023-02-15T01:59:34.971Z,88.33
2023-02-15T02:02:04.513Z,88.71
2023-02-15T02:04:46.300Z,88.25
2023-02-15T02:07:17.194Z,87.75
2023-02-15T02:09:45.733Z,88.47
2023-02-15T02:12:13.439Z,87.87
2023-02-15T02:14:41.668Z,87.78
2023-02-15T02:17:29.326Z,87.89
2023-02-15T02:20:49.019Z,88.39
2023-02-15T02:24:10.234Z,88.16
2023-02-15T02:26:49.229Z,88.20
2023-02-15T02:29:24.757Z,88.38
2023-02-15T02:32:45.612Z,88.68
2023-02-15T02:35:34.419Z,88.66
2023-02-15T02:38:36.740Z,88.97
2023-02-15T02:41:33.487Z,87.66
2023-02-15T02:44:14.009Z,88.24
2023-02-15T02:46:55.460Z,88.53
2023-02-15T02:49:36.240Z,88.37
2023-02-15T02:52:08.157Z,87.76
2023-02-15T02:54:37.243Z,88.36
2023-02-15T02:57:10.296Z,88.57
2023-02-15T02:59:46.407Z,88.65
2023-02-15T03:02:22.450Z,88.64
2023-02-15T03:04:59.669Z,88.45
2023-02-15T03:07:29.827Z,87.82
2023-02-15T03:10:01.301Z,88.19
2023-02-15T03:12:40.322Z,88.45
2023-02-15T03:15:16.920Z,88.14
2023-02-15T03:17:53.770Z,88.51
2023-02-15T03:20:32.405Z,88.58
2023-02-15T03:23:11.745Z,88.49
2023-02-15T03:25:44.214Z,88.67
2023-02-15T03:28:26.529Z,88.65
2023-02-15T03:30:59.065Z,88.60
2023-02-15T03:33:28.914Z,88.27
2023-02-15T03:36:21.544Z,88.40
2023-02-15T03:39:22.381Z,88.14
2023-02-15T03:42:18.464Z,88.15
2023-02-15T03:45:05.065Z,88.55
2023-02-15T03:47:41.737Z,88.93
2023-02-15T03:50:34.872Z,89.11
2023-02-15T03:53:06.328Z,88.50
2023-02-15T03:55:35.905Z,88.29
2023-02-15T03:58:22.357Z,88.80
2023-02-15T04:01:19.656Z,88.57
2023-02-15T04:03:58.353Z,88.83
2023-02-15T04:06:25.387Z,88.75
2023-02-15T04:09:21.675Z,88.68
2023-02-15T04:11:48.808Z,88.19
2023-02-15T04:14:34.123Z,88.53
2023-02-15T04:17:01.094Z,88.60
2023-02-15T04:19:46.880Z,88.45
2023-02-15T04:22:32.637Z,88.57
2023-02-15T04:25:15.084Z,88.60
2023-02-15T04:27:51.119Z,88.10
2023-02-15T04:30:22.040Z,87.65
2023-02-15T04:32:49.397Z,87.77
2023-02-15T04:35:17.061Z,88.08
2023-02-15T04:37:45.123Z,88.23
2023-02-15T04:40:15.995Z,88.31
2023-02-15T04:42:44.010Z,88.15
2023-02-15T04:45:11.124Z,88.23
2023-02-15T04:47:38.154Z,88.25
2023-02-15T04:50:06.101Z,88.51
2023-02-15T04:52:33.192Z,88.70
2023-02-15T04:55:00.207Z,88.46
2023-02-15T04:57:27.352Z,88.46
2023-02-15T04:59:54.431Z,87.68
2023-02-15T05:02:21.483Z,88.39
2023-02-15T05:04:48.541Z,87.88
2023-02-15T05:07:15.844Z,87.65
2023-02-15T05:09:42.884Z,87.48
2023-02-15T05:12:09.952Z,87.90
2023-02-15T05:14:37.048Z,87.94
2023-02-15T05:17:06.250Z,88.19
2023-02-15T05:19:33.439Z,87.71
2023-02-15T05:22:00.555Z,87.11
2023-02-15T05:24:46.484Z,88.12
2023-02-15T05:27:32.734Z,88.09
2023-02-15T05:30:00.013Z,87.95
2023-02-15T05:32:27.404Z,88.28
2023-02-15T05:34:54.607Z,88.11
2023-02-15T05:37:21.696Z,88.27
2023-02-15T05:39:48.760Z,88.10
2023-02-15T05:42:15.812Z,88.14
2023-02-15T05:44:42.880Z,88.23
2023-02-15T05:47:09.918Z,87.68
2023-02-15T05:49:37.258Z,87.49
2023-02-15T05:52:04.959Z,86.99
2023-02-15T05:54:32.203Z,86.74
2023-02-15T05:56:59.574Z,87.93
2023-02-15T05:59:26.703Z,88.19
2023-02-15T06:01:53.721Z,87.52
2023-02-15T06:04:20.896Z,87.41
2023-02-15T06:06:47.970Z,87.43
2023-02-15T06:09:15.391Z,87.27
2023-02-15T06:11:42.591Z,87.52
2023-02-15T06:14:09.619Z,87.70
2023-02-15T06:16:36.880Z,87.53
2023-02-15T06:19:04.823Z,87.71
2023-02-15T06:21:32.295Z,87.53
2023-02-15T06:23:59.510Z,87.92
2023-02-15T06:26:26.714Z,87.87
2023-02-15T06:28:53.904Z,87.69
2023-02-15T06:31:21.160Z,87.20
2023-02-15T06:33:48.280Z,87.63
2023-02-15T06:36:15.322Z,87.32
2023-02-15T06:38:42.524Z,87.23
2023-02-15T06:41:09.655Z,86.82
2023-02-15T06:43:36.651Z,86.86
2023-02-15T06:46:04.073Z,86.88
2023-02-15T06:48:31.494Z,86.56
2023-02-15T06:50:58.653Z,87.42
2023-02-15T06:53:25.780Z,87.69
2023-02-15T06:55:52.857Z,87.41
2023-02-15T06:58:19.913Z,87.25
2023-02-15T07:00:47.019Z,87.38
2023-02-15T07:03:15.862Z,87.42
2023-02-15T07:05:43.006Z,86.45
2023-02-15T07:08:10.254Z,86.76
2023-02-15T07:10:37.341Z,86.81
2023-02-15T07:13:04.418Z,86.58
2023-02-15T07:15:31.615Z,86.26
2023-02-15T07:18:00.127Z,86.24
2023-02-15T07:20:27.720Z,86.43
2023-02-15T07:22:54.750Z,86.97
2023-02-15T07:25:21.779Z,87.21
2023-02-15T07:27:48.924Z,86.53
2023-02-15T07:30:18.401Z,86.38
2023-02-15T07:33:05.784Z,86.15
2023-02-15T07:35:33.963Z,85.53
2023-02-15T07:38:02.197Z,85.40
2023-02-15T07:40:29.278Z,85.54
2023-02-15T07:43:00.215Z,85.70
2023-02-15T07:45:27.982Z,85.41
2023-02-15T07:47:55.097Z,84.65
2023-02-15T07:50:22.175Z,85.61
2023-02-15T07:52:49.197Z,85.96
2023-02-15T07:55:16.399Z,85.89
2023-02-15T07:57:49.128Z,85.45
2023-02-15T08:00:19.184Z,85.10
2023-02-15T08:03:11.190Z,85.31
2023-02-15T08:05:39.184Z,85.38
2023-02-15T08:08:06.675Z,84.91
2023-02-15T08:10:52.550Z,85.04
2023-02-15T08:13:19.573Z,85.04
2023-02-15T08:15:52.729Z,85.36
2023-02-15T08:18:19.757Z,85.40
2023-02-15T08:20:52.751Z,85.37
2023-02-15T08:23:19.847Z,85.55
2023-02-15T08:25:46.896Z,86.04
2023-02-15T08:28:13.994Z,86.18
2023-02-15T08:30:41.056Z,86.20
2023-02-15T08:33:08.355Z,85.75
2023-02-15T08:35:35.461Z,86.19
2023-02-15T08:38:02.523Z,85.84
2023-02-15T08:40:29.693Z,85.86
2023-02-15T08:42:56.764Z,85.83
2023-02-15T08:45:26.382Z,85.89
2023-02-15T08:47:54.421Z,86.16
2023-02-15T08:50:21.491Z,85.86
2023-02-15T08:52:48.632Z,86.00
2023-02-15T08:55:16.639Z,85.73
2023-02-15T08:57:46.452Z,85.81
2023-02-15T09:00:16.450Z,85.95
2023-02-15T09:02:43.528Z,85.61
2023-02-15T09:05:10.757Z,85.57
2023-02-15T09:07:37.798Z,85.30
2023-02-15T09:10:05.534Z,85.26
2023-02-15T09:12:32.556Z,85.28
2023-02-15T09:14:59.667Z,85.37
2023-02-15T09:17:26.693Z,85.05
2023-02-15T09:19:53.760Z,85.27
2023-02-15T09:22:21.237Z,84.94
2023-02-15T09:24:48.270Z,84.94
2023-02-15T09:27:15.497Z,84.97
2023-02-15T09:29:42.547Z,84.31
2023-02-15T09:32:09.562Z,84.55
2023-02-15T09:34:36.638Z,84.12
2023-02-15T09:37:03.883Z,84.01
2023-02-15T09:39:31.097Z,83.92
2023-02-15T09:42:44.663Z,83.54
2023-02-15T09:45:49.017Z,83.34
2023-02-15T09:48:50.203Z,83.63
2023-02-15T09:51:38.688Z,83.33
2023-02-15T09:54:26.202Z,83.07
2023-02-15T09:57:22.233Z,83.06
2023-02-15T10:00:10.902Z,82.87
2023-02-15T10:02:54.434Z,83.15
2023-02-15T10:05:52.095Z,82.73
2023-02-15T10:09:08.734Z,82.51
2023-02-15T10:11:42.053Z,82.46
2023-02-15T10:14:46.538Z,82.96
2023-02-15T10:17:37.862Z,82.63
2023-02-15T10:20:31.999Z,82.45
2023-02-15T10:23:10.712Z,82.43
2023-02-15T10:26:12.344Z,82.60
2023-02-15T10:28:52.325Z,82.67
2023-02-15T10:31:51.981Z,82.47
2023-02-15T10:34:40.857Z,82.21
2023-02-15T10:37:31.100Z,82.63
2023-02-15T10:40:08.822Z,82.67
2023-02-15T10:42:57.915Z,82.72
2023-02-15T10:45:55.794Z,82.67
2023-02-15T10:48:31.514Z,83.05
2023-02-15T10:51:03.313Z,83.83
2023-02-15T10:53:39.494Z,84.04
2023-02-15T10:56:37.355Z,84.12
2023-02-15T10:59:32.277Z,83.75
2023-02-15T11:02:18.912Z,83.79
2023-02-15T11:04:54.148Z,83.79
2023-02-15T11:07:46.084Z,83.82
2023-02-15T11:11:03.013Z,83.68
2023-02-15T11:13:38.872Z,83.24
2023-02-15T11:16:22.527Z,83.09
2023-02-15T11:19:20.463Z,82.70
2023-02-15T11:21:54.045Z,82.64
2023-02-15T11:24:22.704Z,82.43
2023-02-15T11:27:01.930Z,82.31
2023-02-15T11:29:54.355Z,82.04
2023-02-15T11:32:36.872Z,81.93
2023-02-15T11:35:12.937Z,82.19
2023-02-15T11:37:48.030Z,82.03
2023-02-15T11:40:29.443Z,82.35
2023-02-15T11:43:14.634Z,82.39
2023-02-15T11:45:45.773Z,82.11
2023-02-15T11:48:16.995Z,82.00
2023-02-15T11:50:45.988Z,82.37
2023-02-15T11:53:22.270Z,82.22
2023-02-15T11:55:52.072Z,82.32
2023-02-15T11:58:53.882Z,82.49
2023-02-15T12:01:34.013Z,82.61
2023-02-15T12:04:34.020Z,82.76
2023-02-15T12:07:23.582Z,82.54
2023-02-15T12:10:05.228Z,82.95
2023-02-15T12:12:36.140Z,82.95
2023-02-15T12:15:07.869Z,83.17
2023-02-15T12:17:56.068Z,83.19
2023-02-15T12:20:31.982Z,82.96
2023-02-15T12:23:12.056Z,83.38
2023-02-15T12:25:59.191Z,83.75
2023-02-15T12:28:39.683Z,83.77
2023-02-15T12:31:47.200Z,83.67
2023-02-15T12:34:24.514Z,83.68
2023-02-15T12:36:59.180Z,83.57
2023-02-15T12:39:32.571Z,84.11
2023-02-15T12:42:22.818Z,84.12
2023-02-15T12:45:20.204Z,84.10
2023-02-15T12:47:47.333Z,84.27
2023-02-15T12:50:34.586Z,84.77
2023-02-15T12:53:35.860Z,84.95
2023-02-15T12:56:07.089Z,85.00
2023-02-15T12:58:42.227Z,84.77
2023-02-15T13:01:26.706Z,85.05
2023-02-15T13:03:56.696Z,85.12
2023-02-15T13:06:24.039Z,85.21
2023-02-15T13:08:58.503Z,85.22
2023-02-15T13:11:38.881Z,84.50
2023-02-15T13:14:32.534Z,84.65
2023-02-15T13:17:04.100Z,84.31
2023-02-15T13:19:57.812Z,84.85
2023-02-15T13:22:43.321Z,84.54
2023-02-15T13:25:22.260Z,84.56
2023-02-15T13:27:58.560Z,84.32
2023-02-15T13:30:43.253Z,84.17
2023-02-15T13:33:29.668Z,84.51
2023-02-15T13:36:42.983Z,84.46
2023-02-15T13:39:34.618Z,84.38
2023-02-15T13:42:40.906Z,83.74
2023-02-15T13:45:39.617Z,83.81
2023-02-15T13:48:53.013Z,82.89
2023-02-15T13:51:40.114Z,82.67
2023-02-15T13:54:44.886Z,82.72
2023-02-15T13:57:36.231Z,82.58
2023-02-15T14:00:36.329Z,82.69
2023-02-15T14:03:18.258Z,82.92
2023-02-15T14:06:00.505Z,82.94
2023-02-15T14:09:07.611Z,83.00
2023-02-15T14:11:42.358Z,83.42
2023-02-15T14:14:25.058Z,83.73
2023-02-15T14:17:23.361Z,83.50
2023-02-15T14:20:03.086Z,83.59
2023-02-15T14:22:39.921Z,83.59
2023-02-15T14:25:41.479Z,84.03
2023-02-15T14:28:52.078Z,84.27
2023-02-15T14:31:24.497Z,84.02
2023-02-15T14:33:59.189Z,84.41
2023-02-15T14:36:31.231Z,84.52
2023-02-15T14:39:51.266Z,84.58
2023-02-15T14:42:42.074Z,84.35
2023-02-15T14:45:43.973Z,84.56
2023-02-15T14:48:25.298Z,84.09
2023-02-15T14:50:52.429Z,83.90
2023-02-15T14:53:32.057Z,84.15
2023-02-15T14:56:20.509Z,84.43
2023-02-15T14:58:53.630Z,84.64
2023-02-15T15:01:36.642Z,84.83
2023-02-15T15:04:15.498Z,85.04
2023-02-15T15:06:45.031Z,84.82
2023-02-15T15:09:29.289Z,84.66
2023-02-15T15:12:38.862Z,84.87
2023-02-15T15:15:07.837Z,85.46
2023-02-15T15:17:35.059Z,85.80
2023-02-15T15:20:08.400Z,85.77
2023-02-15T15:22:37.755Z,85.32
2023-02-15T15:25:34.785Z,85.55
2023-02-15T15:28:01.898Z,85.73
2023-02-15T15:30:31.615Z,85.77
2023-02-15T15:32:58.571Z,85.62
2023-02-15T15:35:53.781Z,85.39
2023-02-15T15:39:06.960Z,85.67
2023-02-15T15:42:02.916Z,85.32
2023-02-15T15:44:54.017Z,85.02
2023-02-15T15:48:07.152Z,85.06
2023-02-15T15:50:35.575Z,84.93
2023-02-15T15:53:04.390Z,84.85
2023-02-15T15:55:34.634Z,85.12
2023-02-15T15:58:07.182Z,84.88
2023-02-15T16:00:39.308Z,84.17
2023-02-15T16:03:07.046Z,84.63
2023-02-15T16:05:39.339Z,83.86
2023-02-15T16:08:07.054Z,83.87
2023-02-15T16:10:36.928Z,83.57
2023-02-15T16:13:05.795Z,83.54
2023-02-15T16:15:50.677Z,83.36
2023-02-15T16:18:23.054Z,83.25
2023-02-15T16:21:00.160Z,83.66
2023-02-15T16:23:36.384Z,82.82
2023-02-15T16:27:00.122Z,83.28
2023-02-15T16:29:32.549Z,83.33
2023-02-15T16:32:21.441Z,83.43
2023-02-15T16:35:03.833Z,83.59
2023-02-15T16:37:35.796Z,83.42
2023-02-15T16:40:03.527Z,83.71
2023-02-15T16:42:30.530Z,83.77
2023-02-15T16:45:10.148Z,83.54
2023-02-15T16:47:44.232Z,83.60
2023-02-15T16:50:38.246Z,84.32
2023-02-15T16:53:17.281Z,83.45
2023-02-15T16:55:48.963Z,84.27
2023-02-15T16:58:18.734Z,84.54
2023-02-15T17:00:46.675Z,84.42
2023-02-15T17:03:13.586Z,84.45
2023-02-15T17:05:51.155Z,84.76
2023-02-15T17:08:35.342Z,84.76
2023-02-15T17:11:22.442Z,84.57
2023-02-15T17:14:09.756Z,84.45
2023-02-15T17:17:01.887Z,84.38
2023-02-15T17:19:36.109Z,84.37
2023-02-15T17:22:08.132Z,84.12
2023-02-15T17:24:43.061Z,84.20
2023-02-15T17:27:25.770Z,84.02
2023-02-15T17:29:59.974Z,84.25
2023-02-15T17:32:31.342Z,83.97
2023-02-15T17:35:09.181Z,84.63
2023-02-15T17:37:38.858Z,84.63
2023-02-15T17:40:28.318Z,85.04
2023-02-15T17:42:55.554Z,84.43
2023-02-15T17:45:27.339Z,84.14
2023-02-15T17:47:54.705Z,84.55
2023-02-15T17:50:26.358Z,84.86
2023-02-15T17:52:56.464Z,85.32
2023-02-15T17:55:41.240Z,85.54
2023-02-15T17:58:19.494Z,85.74
2023-02-15T18:01:11.898Z,85.62
2023-02-15T18:04:04.761Z,85.82
2023-02-15T18:06:51.777Z,85.81
2023-02-15T18:09:40.784Z,86.31
2023-02-15T18:12:22.255Z,86.35
2023-02-15T18:14:50.859Z,86.17
2023-02-15T18:17:18.722Z,86.05
2023-02-15T18:19:47.233Z,85.68
2023-02-15T18:22:19.102Z,85.61
2023-02-15T18:24:48.782Z,86.11
2023-02-15T18:27:16.919Z,85.58
2023-02-15T18:29:44.086Z,85.74
2023-02-15T18:32:20.033Z,85.29
2023-02-15T18:34:49.518Z,85.67
2023-02-15T18:37:21.098Z,85.05
2023-02-15T18:39:57.428Z,84.78
2023-02-15T18:42:35.240Z,85.50
2023-02-15T18:45:18.706Z,85.60
2023-02-15T18:47:47.602Z,85.92
2023-02-15T18:50:17.001Z,86.11
2023-02-15T18:52:47.237Z,86.40
2023-02-15T18:55:23.095Z,86.80
2023-02-15T18:57:54.041Z,86.88
2023-02-15T19:00:33.888Z,86.65
2023-02-15T19:03:02.602Z,86.21
2023-02-15T19:05:31.959Z,85.60
2023-02-15T19:08:01.827Z,86.04
2023-02-15T19:10:31.464Z,86.15
2023-02-15T19:12:58.984Z,86.23
2023-02-15T19:15:30.584Z,86.09
2023-02-15T19:17:57.788Z,86.36
2023-02-15T19:20:45.582Z,86.41
2023-02-15T19:23:20.337Z,86.56
2023-02-15T19:25:49.741Z,86.28
2023-02-15T19:28:32.494Z,86.31
2023-02-15T19:30:59.769Z,86.28
2023-02-15T19:33:27.042Z,86.19
2023-02-15T19:35:57.647Z,86.23
2023-02-15T19:38:30.503Z,85.82
2023-02-15T19:41:07.535Z,85.88
2023-02-15T19:43:35.900Z,85.84
2023-02-15T19:46:03.335Z,85.80
2023-02-15T19:48:30.508Z,85.80
2023-02-15T19:50:58.977Z,85.65
2023-02-15T19:53:28.605Z,86.12
2023-02-15T19:55:55.778Z,85.72
2023-02-15T19:58:23.265Z,85.95
2023-02-15T20:00:51.770Z,85.80
2023-02-15T20:03:18.815Z,85.81
2023-02-15T20:05:46.970Z,85.66
2023-02-15T20:08:20.863Z,85.41
2023-02-15T20:10:48.650Z,85.39
2023-02-15T20:13:20.281Z,85.43
2023-02-15T20:15:49.157Z,85.23
2023-02-15T20:18:16.236Z,85.32
2023-02-15T20:20:49.445Z,85.78
2023-02-15T20:23:31.096Z,85.58
2023-02-15T20:26:01.091Z,85.59
2023-02-15T20:28:31.887Z,85.42
2023-02-15T20:30:59.638Z,85.35
2023-02-15T20:33:26.834Z,85.84
2023-02-15T20:35:54.044Z,85.45
2023-02-15T20:38:29.003Z,85.82
2023-02-15T20:41:17.658Z,85.51
2023-02-15T20:43:44.919Z,86.05
2023-02-15T20:46:11.990Z,86.11
2023-02-15T20:48:39.128Z,86.24
2023-02-15T20:51:14.482Z,86.03
2023-02-15T20:53:41.510Z,85.72
2023-02-15T20:56:22.327Z,85.77
2023-02-15T20:58:50.657Z,86.05
2023-02-15T21:01:21.494Z,86.00
2023-02-15T21:03:48.752Z,86.77
2023-02-15T21:06:19.172Z,86.48
2023-02-15T21:08:46.243Z,86.19
2023-02-15T21:11:23.819Z,86.57
2023-02-15T21:13:51.384Z,86.63
2023-02-15T21:16:18.574Z,86.56
2023-02-15T21:18:45.693Z,86.60
2023-02-15T21:21:23.593Z,86.32
2023-02-15T21:23:52.418Z,86.32
2023-02-15T21:26:22.805Z,86.30
2023-02-15T21:28:50.579Z,87.01
2023-02-15T21:31:25.187Z,87.13
2023-02-15T21:33:52.769Z,86.84
2023-02-15T21:36:24.206Z,86.71
2023-02-15T21:38:53.767Z,86.87
2023-02-15T21:41:42.814Z,87.03
2023-02-15T21:44:41.040Z,87.38
2023-02-15T21:47:44.666Z,87.43
2023-02-15T21:50:37.855Z,87.07
2023-02-15T21:53:07.307Z,87.04
2023-02-15T21:55:34.407Z,87.13
2023-02-15T21:58:02.451Z,86.88
2023-02-15T22:00:30.686Z,87.33
2023-02-15T22:03:00.960Z,87.33
2023-02-15T22:05:33.763Z,87.19
2023-02-15T22:08:01.232Z,87.30
2023-02-15T22:10:31.858Z,86.91
2023-02-15T22:13:02.925Z,87.13
2023-02-15T22:15:37.588Z,87.26
2023-02-15T22:18:05.977Z,87.27
2023-02-15T22:20:33.209Z,86.79
2023-02-15T22:23:00.253Z,86.77
2023-02-15T22:25:27.720Z,87.06
2023-02-15T22:27:55.701Z,87.69
2023-02-15T22:30:27.461Z,87.59
2023-02-15T22:32:56.998Z,87.27
2023-02-15T22:35:31.227Z,87.10
2023-02-15T22:37:59.018Z,86.90
2023-02-15T22:40:33.137Z,87.42
2023-02-15T22:43:03.139Z,87.45
2023-02-15T22:45:32.112Z,87.64
2023-02-15T22:48:00.701Z,87.73
2023-02-15T22:50:33.081Z,87.82
2023-02-15T22:53:04.030Z,87.85
2023-02-15T22:55:36.393Z,87.73
2023-02-15T22:58:04.311Z,87.65
2023-02-15T23:00:38.399Z,87.41
2023-02-15T23:03:17.014Z,87.92
2023-02-15T23:05:45.268Z,87.19
2023-02-15T23:08:12.652Z,87.02
2023-02-15T23:10:41.303Z,87.26
2023-02-15T23:13:31.272Z,87.07
2023-02-15T23:16:01.885Z,86.98
2023-02-15T23:18:31.539Z,87.00
2023-02-15T23:21:04.409Z,86.98
2023-02-15T23:23:38.193Z,87.04
2023-02-15T23:26:18.076Z,87.00
2023-02-15T23:28:46.433Z,86.58
2023-02-15T23:31:23.598Z,86.89
2023-02-15T23:33:51.636Z,86.84
2023-02-15T23:36:38.116Z,87.36
2023-02-15T23:39:37.853Z,87.07
2023-02-15T23:42:27.948Z,87.03
2023-02-15T23:44:55.422Z,87.07
2023-02-15T23:47:53.385Z,87.31
2023-02-15T23:50:27.196Z,87.32
2023-02-15T23:52:55.541Z,87.54
2023-02-15T23:55:25.240Z,87.66
2023-02-15T23:57:53.423Z,87.49
